Time;durP1;ratioP1;P1;durP2;ratioP2;P2;SDS_P1;SDS_P2;PMS_P1;PMS_P2;Temp;Humidity;BMP_temperature;BMP_pressure;BME280_temperature;BME280_humidity;BME280_pressure;Samples;Min_cycle;Max_cycle;Signal;HPM_P1;HPM_P2
2023/05/08 00:01:48;;;;;;;19.87;18.00;;;15.70;99.90;;;;;;4994203;28;20212;-76
2023/05/08 00:04:14;;;;;;;19.97;18.10;;;15.70;99.90;;;;;;4994122;28;20210;-73
2023/05/08 00:06:40;;;;;;;20.40;18.50;;;15.80;99.90;;;;;;4993998;28;20635;-73
2023/05/08 00:09:05;;;;;;;19.00;17.20;;;15.70;99.90;;;;;;4993742;28;20210;-73
2023/05/08 00:11:31;;;;;;;26.23;20.10;;;15.70;99.90;;;;;;4993951;28;20836;-73
2023/05/08 00:13:56;;;;;;;19.43;17.70;;;15.70;99.90;;;;;;4994125;28;20176;-73
2023/05/08 00:16:22;;;;;;;17.27;15.67;;;15.70;99.90;;;;;;4993791;28;20546;-73
2023/05/08 00:18:47;;;;;;;19.70;17.90;;;15.70;99.90;;;;;;4993454;28;20195;-75
2023/05/08 00:21:13;;;;;;;20.97;18.43;;;15.70;99.90;;;;;;4993848;28;20270;-74
2023/05/08 00:23:38;;;;;;;22.17;19.90;;;15.70;99.90;;;;;;4993772;28;20175;-75
2023/05/08 00:26:04;;;;;;;15.90;14.50;;;15.70;99.90;;;;;;4993306;28;20872;-75
2023/05/08 00:28:30;;;;;;;14.70;13.50;;;15.80;99.90;;;;;;4993486;28;20206;-75
2023/05/08 00:30:59;;;;;;;15.10;13.60;;;15.90;99.90;;;;;;4993665;28;20535;-75
2023/05/08 00:33:25;;;;;;;17.13;15.47;;;15.90;99.90;;;;;;4993555;28;20226;-75
2023/05/08 00:35:57;;;;;;;16.93;15.33;;;15.90;99.90;;;;;;4993549;28;20414;-74
2023/05/08 00:38:22;;;;;;;20.40;18.30;;;15.80;99.90;;;;;;4993072;28;20683;-74
2023/05/08 00:40:48;;;;;;;21.60;19.50;;;15.80;99.90;;;;;;4993461;28;20427;-75
2023/05/08 00:43:13;;;;;;;22.80;20.60;;;15.80;99.90;;;;;;4993425;28;20179;-75
2023/05/08 00:45:39;;;;;;;22.13;19.97;;;15.70;99.90;;;;;;4993307;28;20175;-75
2023/05/08 00:48:06;;;;;;;21.67;19.43;;;15.70;99.90;;;;;;4993166;28;20223;-75
2023/05/08 00:50:32;;;;;;;21.77;19.83;;;15.80;99.90;;;;;;4993100;28;20301;-75
2023/05/08 00:52:59;;;;;;;24.23;20.30;;;15.80;99.90;;;;;;4993141;28;20525;-75
2023/05/08 00:55:24;;;;;;;23.37;21.13;;;15.80;99.90;;;;;;4993222;28;20176;-75
2023/05/08 00:57:51;;;;;;;24.20;21.90;;;15.80;99.90;;;;;;4993035;28;20806;-75
2023/05/08 01:00:18;;;;;;;25.93;23.40;;;15.70;99.90;;;;;;4992987;28;20190;-75
2023/05/08 01:02:45;;;;;;;26.90;24.20;;;15.70;99.90;;;;;;4993038;28;20488;-74
2023/05/08 01:05:11;;;;;;;27.40;24.70;;;15.70;99.90;;;;;;4993066;28;20437;-74
2023/05/08 01:07:37;;;;;;;25.03;22.07;;;15.70;99.90;;;;;;4992963;28;20840;-74
2023/05/08 01:10:04;;;;;;;27.17;24.40;;;15.70;99.90;;;;;;4992806;28;20567;-74
2023/05/08 01:12:53;;;;;;;26.33;23.07;;;15.80;99.90;;;;;;4992986;28;20843;-74
2023/05/08 01:15:26;;;;;;;23.20;20.77;;;15.80;99.90;;;;;;4993014;28;20474;-74
2023/05/08 01:18:03;;;;;;;23.20;21.07;;;15.70;99.90;;;;;;4992686;28;20465;-74
2023/05/08 01:20:34;;;;;;;25.60;22.97;;;15.80;99.90;;;;;;4992817;28;20415;-74
2023/05/08 01:23:09;;;;;;;26.00;23.50;;;15.80;99.90;;;;;;4992773;28;20426;-74
2023/05/08 01:25:42;;;;;;;25.27;22.83;;;15.80;99.90;;;;;;4992900;28;20449;-74
2023/05/08 01:28:37;;;;;;;24.50;22.10;;;15.80;99.90;;;;;;4992623;28;20482;-74
2023/05/08 01:31:21;;;;;;;22.20;20.10;;;15.70;99.90;;;;;;4992738;28;20437;-74
2023/05/08 01:33:55;;;;;;;21.10;18.90;;;15.50;99.90;;;;;;4992669;28;20445;-74
2023/05/08 01:36:48;;;;;;;21.43;19.53;;;15.40;99.90;;;;;;4991762;28;20951;-74
2023/05/08 01:39:20;;;;;;;22.60;20.33;;;15.40;99.90;;;;;;4992337;28;20777;-74
2023/05/08 01:41:56;;;;;;;22.97;20.57;;;15.50;99.90;;;;;;4992699;28;20418;-74
2023/05/08 01:44:27;;;;;;;22.43;20.20;;;15.50;99.90;;;;;;4992566;28;20426;-74
2023/05/08 01:46:53;;;;;;;18.73;16.90;;;15.40;99.90;;;;;;4992477;28;20457;-74
2023/05/08 01:49:28;;;;;;;21.47;19.47;;;15.50;99.90;;;;;;4992166;28;20458;-74
2023/05/08 01:52:06;;;;;;;21.17;17.47;;;15.50;99.90;;;;;;4992551;28;20171;-74
2023/05/08 01:54:39;;;;;;;20.40;18.47;;;15.50;99.90;;;;;;4992587;28;21015;-74
2023/05/08 01:57:08;;;;;;;21.03;18.83;;;15.50;99.90;;;;;;4992520;28;20445;-74
2023/05/08 01:59:34;;;;;;;19.90;17.90;;;15.60;99.90;;;;;;4992142;28;20423;-74
2023/05/08 02:02:00;;;;;;;17.83;16.23;;;15.60;99.90;;;;;;4992376;28;20430;-74
2023/05/08 02:04:27;;;;;;;19.60;17.73;;;15.60;99.90;;;;;;4992450;28;20522;-74
2023/05/08 02:06:54;;;;;;;19.93;17.97;;;15.60;99.90;;;;;;4992346;28;20610;-74
2023/05/08 02:09:22;;;;;;;19.27;17.47;;;15.60;99.90;;;;;;4991956;28;20458;-74
2023/05/08 02:11:49;;;;;;;19.93;17.83;;;15.60;99.90;;;;;;4992436;28;20426;-74
2023/05/08 02:14:18;;;;;;;20.57;18.53;;;15.50;99.90;;;;;;4992419;28;20513;-74
2023/05/08 02:16:45;;;;;;;23.50;21.30;;;15.40;99.90;;;;;;4992308;28;20470;-74
2023/05/08 02:19:11;;;;;;;24.80;22.10;;;15.40;99.90;;;;;;4992046;28;20473;-74
2023/05/08 02:21:39;;;;;;;24.57;22.17;;;15.40;99.90;;;;;;4992256;28;20419;-74
2023/05/08 02:24:05;;;;;;;23.77;21.37;;;15.40;99.90;;;;;;4992286;28;20443;-74
2023/05/08 02:26:33;;;;;;;24.00;21.70;;;15.40;99.90;;;;;;4992234;28;22052;-74
2023/05/08 02:29:00;;;;;;;25.30;20.70;;;15.40;99.90;;;;;;4991763;28;20458;-74
2023/05/08 02:31:28;;;;;;;21.20;18.87;;;15.40;99.90;;;;;;4992122;28;20431;-74
2023/05/08 02:33:56;;;;;;;20.43;18.30;;;15.50;99.90;;;;;;4992181;28;20449;-74
2023/05/08 02:36:22;;;;;;;22.47;20.40;;;15.50;99.90;;;;;;4992020;28;20423;-74
2023/05/08 02:38:52;;;;;;;24.50;19.30;;;15.40;99.90;;;;;;4991887;28;20434;-74
2023/05/08 02:41:21;;;;;;;21.97;19.87;;;15.40;99.90;;;;;;4992125;28;20447;-74
2023/05/08 02:43:47;;;;;;;21.90;19.80;;;15.50;99.90;;;;;;4992140;28;20484;-74
2023/05/08 02:46:32;;;;;;;20.87;18.80;;;15.50;99.90;;;;;;4991943;28;20426;-74
2023/05/08 02:49:02;;;;;;;20.80;18.73;;;15.40;99.90;;;;;;4994463;28;20458;-74
2023/05/08 02:51:52;;;;;;;22.13;19.97;;;15.40;99.90;;;;;;4995471;28;20418;-74
2023/05/08 02:54:58;;;;;;;22.10;19.40;;;15.40;99.90;;;;;;4995467;28;20513;-74
2023/05/08 02:57:24;;;;;;;27.20;21.77;;;15.40;99.90;;;;;;4992337;28;20525;-74
2023/05/08 03:00:01;;;;;;;20.67;18.77;;;15.40;99.90;;;;;;4995038;28;20436;-74
2023/05/08 03:02:41;;;;;;;21.50;19.50;;;15.40;99.90;;;;;;4995266;28;20186;-74
2023/05/08 03:05:19;;;;;;;22.77;20.30;;;15.40;99.90;;;;;;4995420;28;20509;-74
2023/05/08 03:07:48;;;;;;;21.60;19.43;;;15.40;99.90;;;;;;4995180;28;20488;-74
2023/05/08 03:10:15;;;;;;;22.40;20.40;;;15.40;99.90;;;;;;4994782;28;20466;-74
2023/05/08 03:12:45;;;;;;;21.50;19.40;;;15.40;99.90;;;;;;4995110;28;20422;-74
2023/05/08 03:15:13;;;;;;;21.50;17.23;;;15.40;99.90;;;;;;4995293;28;20916;-74
2023/05/08 03:17:42;;;;;;;22.13;20.07;;;15.40;99.90;;;;;;4994801;28;20967;-74
2023/05/08 03:20:11;;;;;;;22.77;20.43;;;15.50;99.90;;;;;;4994711;28;20940;-74
2023/05/08 03:22:38;;;;;;;21.63;19.43;;;15.50;99.90;;;;;;4994883;28;20802;-74
2023/05/08 03:25:08;;;;;;;20.70;18.83;;;15.50;99.90;;;;;;4994815;28;20432;-74
2023/05/08 03:27:34;;;;;;;19.40;17.60;;;15.60;99.90;;;;;;4995001;28;20546;-74
2023/05/08 03:30:01;;;;;;;21.47;19.20;;;15.50;99.90;;;;;;4994369;28;20512;-74
2023/05/08 03:32:28;;;;;;;22.20;20.20;;;15.50;99.90;;;;;;4994737;28;20423;-74
2023/05/08 03:34:58;;;;;;;22.50;20.30;;;15.50;99.90;;;;;;4994741;28;20427;-74
2023/05/08 03:37:24;;;;;;;23.07;20.63;;;15.50;99.90;;;;;;4994690;28;20646;-75
2023/05/08 03:39:50;;;;;;;22.13;19.83;;;15.50;99.90;;;;;;4994221;28;20421;-74
2023/05/08 03:42:20;;;;;;;23.20;20.90;;;15.40;99.90;;;;;;4994595;28;20431;-74
2023/05/08 03:44:50;;;;;;;25.20;20.80;;;15.30;99.90;;;;;;4994496;28;20913;-75
2023/05/08 03:47:17;;;;;;;22.60;20.50;;;15.20;99.90;;;;;;4994398;28;21027;-75
2023/05/08 03:49:45;;;;;;;25.23;19.70;;;15.20;99.90;;;;;;4994117;28;20454;-74
2023/05/08 03:52:15;;;;;;;24.83;21.27;;;15.20;99.90;;;;;;4994435;28;20423;-75
2023/05/08 03:54:41;;;;;;;20.83;18.80;;;15.20;99.90;;;;;;4994392;28;20423;-75
2023/05/08 03:57:07;;;;;;;23.37;20.30;;;15.20;99.90;;;;;;4994252;28;20959;-74
2023/05/08 03:59:33;;;;;;;23.97;21.47;;;15.20;99.90;;;;;;4993113;28;20426;-74
2023/05/08 04:02:23;;;;;;;23.47;21.13;;;15.20;99.90;;;;;;4994191;28;20430;-74
2023/05/08 04:04:58;;;;;;;22.47;20.37;;;15.30;99.90;;;;;;4994161;28;20258;-74
2023/05/08 04:07:30;;;;;;;22.53;20.13;;;15.30;99.90;;;;;;4994072;28;20820;-74
2023/05/08 04:10:14;;;;;;;23.00;20.23;;;15.40;99.90;;;;;;4993707;28;20549;-74
2023/05/08 04:12:53;;;;;;;23.50;20.73;;;15.40;99.90;;;;;;4994215;28;20425;-74
2023/05/08 04:15:22;;;;;;;23.30;20.93;;;15.30;99.90;;;;;;4993984;28;20502;-74
2023/05/08 04:18:02;;;;;;;28.00;25.13;;;15.30;99.90;;;;;;4993703;28;20458;-74
2023/05/08 04:20:29;;;;;;;23.80;21.30;;;15.30;99.90;;;;;;4993632;28;20465;-75
2023/05/08 04:22:57;;;;;;;28.93;25.00;;;15.30;99.90;;;;;;4993821;28;20822;-75
2023/05/08 04:25:22;;;;;;;26.70;24.00;;;15.30;99.90;;;;;;4993695;28;20418;-75
2023/05/08 04:27:53;;;;;;;27.20;21.73;;;15.30;99.90;;;;;;4993515;28;20450;-75
2023/05/08 04:30:19;;;;;;;27.97;25.10;;;15.30;99.90;;;;;;4993562;28;20203;-75
2023/05/08 04:32:45;;;;;;;27.07;24.17;;;15.30;99.90;;;;;;4993604;28;20442;-74
2023/05/08 04:35:12;;;;;;;26.80;24.00;;;15.30;99.90;;;;;;4993579;28;20425;-74
2023/05/08 04:37:37;;;;;;;24.63;22.10;;;15.30;99.90;;;;;;4993473;28;20438;-75
2023/05/08 04:40:04;;;;;;;26.63;24.00;;;15.30;99.90;;;;;;4993177;28;20796;-75
2023/05/08 04:42:29;;;;;;;25.70;23.10;;;15.30;99.90;;;;;;4993371;28;20641;-74
2023/05/08 04:44:55;;;;;;;27.00;24.10;;;15.30;99.90;;;;;;4993369;28;20554;-75
2023/05/08 04:47:20;;;;;;;28.07;24.00;;;15.30;99.90;;;;;;4993341;28;20200;-74
2023/05/08 04:49:46;;;;;;;28.37;25.17;;;15.30;99.90;;;;;;4992971;28;20674;-74
2023/05/08 04:52:11;;;;;;;26.03;23.17;;;15.20;99.90;;;;;;4993284;28;20183;-75
2023/05/08 04:54:37;;;;;;;27.77;24.00;;;15.30;99.90;;;;;;4993215;28;20171;-75
2023/05/08 04:57:03;;;;;;;27.37;23.80;;;15.40;99.90;;;;;;4993033;28;20203;-74
2023/05/08 04:59:28;;;;;;;28.00;25.07;;;15.40;99.90;;;;;;4992826;28;20547;-74
2023/05/08 05:01:55;;;;;;;27.70;25.00;;;15.50;99.90;;;;;;4993333;28;20215;-75
2023/05/08 05:04:21;;;;;;;26.97;24.17;;;15.80;99.90;;;;;;4993104;28;20171;-74
2023/05/08 05:06:47;;;;;;;25.13;22.73;;;15.90;99.90;;;;;;4992982;28;20505;-74
2023/05/08 05:09:12;;;;;;;24.53;22.13;;;16.10;99.90;;;;;;4992739;28;20458;-74
2023/05/08 05:11:38;;;;;;;22.87;20.60;;;16.20;99.90;;;;;;4992807;28;20602;-74
2023/05/08 05:14:05;;;;;;;23.17;20.83;;;16.20;99.90;;;;;;4974929;28;20700;-74
2023/05/08 05:16:30;;;;;;;22.63;20.43;;;16.20;99.90;;;;;;4973994;28;20183;-74
2023/05/08 05:18:56;;;;;;;24.63;22.20;;;16.20;99.90;;;;;;4973106;28;20431;-74
2023/05/08 05:21:21;;;;;;;23.20;21.00;;;16.20;99.90;;;;;;4973418;28;20639;-75
2023/05/08 05:23:47;;;;;;;23.13;20.80;;;16.00;99.90;;;;;;4973329;28;20176;-74
2023/05/08 05:26:12;;;;;;;24.90;22.43;;;15.90;99.90;;;;;;4973491;28;20184;-74
2023/05/08 05:28:38;;;;;;;24.40;21.90;;;15.90;99.90;;;;;;4973293;28;20168;-74
2023/05/08 05:31:03;;;;;;;25.47;23.17;;;15.80;99.90;;;;;;4973256;28;20263;-75
2023/05/08 05:33:29;;;;;;;25.90;23.33;;;15.60;99.90;;;;;;4973278;28;20251;-74
2023/05/08 05:35:54;;;;;;;25.60;23.00;;;15.60;99.90;;;;;;4973222;28;20169;-74
2023/05/08 05:38:20;;;;;;;24.90;22.20;;;15.60;99.90;;;;;;4972820;28;20196;-74
2023/05/08 05:40:45;;;;;;;23.93;21.33;;;15.60;99.90;;;;;;4973416;28;20238;-74
2023/05/08 05:43:11;;;;;;;24.43;21.80;;;15.60;99.90;;;;;;4973304;28;20173;-74
2023/05/08 05:45:37;;;;;;;23.97;21.47;;;15.60;99.90;;;;;;4973120;28;20180;-75
2023/05/08 05:48:03;;;;;;;24.17;21.87;;;15.70;99.90;;;;;;4973190;28;20203;-75
2023/05/08 05:50:29;;;;;;;23.13;20.83;;;15.70;99.90;;;;;;4972911;28;20458;-75
2023/05/08 05:52:54;;;;;;;25.30;21.80;;;15.80;99.90;;;;;;4973025;28;20267;-74
2023/05/08 05:55:21;;;;;;;23.20;21.00;;;15.90;99.90;;;;;;4973055;28;20176;-75
2023/05/08 05:57:47;;;;;;;22.23;20.17;;;15.90;99.90;;;;;;4972990;28;20275;-75
2023/05/08 06:00:13;;;;;;;23.83;21.50;;;16.00;99.90;;;;;;4972750;28;20470;-74
2023/05/08 06:02:39;;;;;;;22.43;20.23;;;16.00;99.90;;;;;;4973011;28;20431;-74
2023/05/08 06:05:05;;;;;;;23.13;20.90;;;16.10;99.90;;;;;;4972962;28;20527;-75
2023/05/08 06:07:31;;;;;;;20.50;18.60;;;16.00;99.90;;;;;;4972837;28;20450;-74
2023/05/08 06:09:56;;;;;;;22.10;19.80;;;16.10;99.90;;;;;;4972554;28;20542;-75
2023/05/08 06:12:22;;;;;;;23.40;21.20;;;16.20;99.90;;;;;;4973035;28;20242;-74
2023/05/08 06:14:47;;;;;;;21.90;19.70;;;16.40;99.90;;;;;;4973031;28;20171;-74
2023/05/08 06:17:13;;;;;;;21.17;19.13;;;16.50;99.90;;;;;;4972706;28;20681;-74
2023/05/08 06:19:38;;;;;;;20.03;18.13;;;16.70;99.90;;;;;;4972667;28;20196;-75
2023/05/08 06:22:04;;;;;;;20.27;18.47;;;16.70;99.90;;;;;;4972884;28;20179;-75
2023/05/08 06:24:30;;;;;;;19.77;18.07;;;16.70;99.90;;;;;;4976532;28;20263;-75
2023/05/08 06:26:55;;;;;;;18.40;16.70;;;16.80;99.90;;;;;;4976419;28;20192;-74
2023/05/08 06:29:21;;;;;;;20.30;18.40;;;16.80;99.90;;;;;;4993774;28;20204;-75
2023/05/08 06:31:46;;;;;;;19.77;17.87;;;16.70;99.90;;;;;;4995951;28;20541;-75
2023/05/08 06:34:12;;;;;;;18.60;16.90;;;16.70;99.90;;;;;;4995930;28;20176;-75
2023/05/08 06:36:38;;;;;;;20.37;18.37;;;16.60;99.90;;;;;;4995772;28;20690;-75
2023/05/08 06:39:07;;;;;;;19.27;17.57;;;16.70;99.90;;;;;;4995361;28;20233;-73
2023/05/08 06:41:32;;;;;;;19.63;17.90;;;16.70;99.90;;;;;;4988322;28;20193;-76
2023/05/08 06:43:58;;;;;;;19.70;18.00;;;16.70;99.90;;;;;;4994039;28;20419;-76
2023/05/08 06:46:23;;;;;;;18.53;16.87;;;16.70;99.90;;;;;;4994014;28;20214;-76
2023/05/08 06:48:49;;;;;;;20.90;18.67;;;16.70;99.90;;;;;;4972311;28;20172;-76
2023/05/08 06:51:15;;;;;;;16.90;15.50;;;16.70;99.90;;;;;;4976024;28;20177;-76
2023/05/08 06:53:40;;;;;;;18.33;16.53;;;16.80;99.90;;;;;;4977956;28;20180;-76
2023/05/08 06:56:06;;;;;;;19.27;17.63;;;16.90;99.90;;;;;;4995232;28;20862;-77
2023/05/08 06:58:32;;;;;;;20.30;17.73;;;16.80;99.90;;;;;;4995034;28;20184;-77
2023/05/08 07:01:00;;;;;;;20.20;18.30;;;16.90;99.90;;;;;;4995159;28;20183;-75
2023/05/08 07:03:26;;;;;;;18.90;17.20;;;16.90;99.90;;;;;;4995198;28;20176;-75
2023/05/08 07:05:52;;;;;;;19.03;17.40;;;16.90;99.90;;;;;;4992576;28;20434;-76
2023/05/08 07:08:18;;;;;;;20.40;18.60;;;16.80;99.90;;;;;;4975285;28;20459;-76
2023/05/08 07:10:43;;;;;;;19.53;17.73;;;16.80;99.90;;;;;;4975548;28;20204;-76
2023/05/08 07:13:09;;;;;;;19.77;17.90;;;16.80;99.90;;;;;;4975657;28;20220;-75
2023/05/08 07:15:34;;;;;;;20.93;19.03;;;16.80;99.90;;;;;;4975498;28;20251;-75
2023/05/08 07:18:00;;;;;;;18.70;17.00;;;16.80;99.90;;;;;;4975263;28;20617;-76
2023/05/08 07:20:26;;;;;;;18.23;16.50;;;16.80;99.90;;;;;;4975244;28;20172;-76
2023/05/08 07:22:51;;;;;;;21.20;19.17;;;16.90;99.90;;;;;;4975385;28;20180;-76
2023/05/08 07:25:17;;;;;;;18.50;16.90;;;16.90;99.90;;;;;;4975301;28;20446;-76
2023/05/08 07:27:43;;;;;;;18.53;16.93;;;16.80;99.90;;;;;;4975557;28;20226;-77
2023/05/08 07:30:08;;;;;;;18.43;16.67;;;16.90;99.90;;;;;;4974977;28;20639;-76
2023/05/08 07:32:34;;;;;;;17.53;15.93;;;17.00;99.90;;;;;;4975627;28;20202;-77
2023/05/08 07:35:01;;;;;;;18.83;17.30;;;17.20;99.90;;;;;;4974292;28;20176;-77
2023/05/08 07:37:28;;;;;;;17.20;15.70;;;17.30;99.90;;;;;;4975232;28;20447;-76
2023/05/08 07:39:53;;;;;;;17.70;16.17;;;17.40;99.90;;;;;;4974945;28;20426;-76
2023/05/08 07:42:20;;;;;;;17.80;16.27;;;17.70;99.90;;;;;;4976947;28;20412;-76
2023/05/08 07:44:45;;;;;;;17.10;15.57;;;17.80;99.90;;;;;;4994497;28;20172;-77
2023/05/08 07:47:11;;;;;;;17.20;15.70;;;18.10;99.90;;;;;;4994333;28;20502;-76
2023/05/08 07:49:36;;;;;;;17.70;15.93;;;18.30;99.90;;;;;;4994049;28;20274;-76
2023/05/08 07:52:02;;;;;;;16.10;14.80;;;18.40;99.90;;;;;;4994229;28;20609;-76
2023/05/08 07:54:28;;;;;;;15.87;14.53;;;18.40;99.90;;;;;;4994292;28;20254;-77
2023/05/08 07:56:53;;;;;;;16.73;15.33;;;18.60;99.90;;;;;;4994298;28;20187;-76
2023/05/08 07:59:19;;;;;;;16.07;14.77;;;18.70;99.90;;;;;;4993879;28;20540;-76
2023/05/08 08:01:46;;;;;;;17.17;15.57;;;18.70;99.90;;;;;;4993995;28;20195;-76
2023/05/08 08:04:13;;;;;;;16.43;15.07;;;18.60;99.90;;;;;;4976660;28;20179;-76
2023/05/08 08:06:39;;;;;;;16.77;15.33;;;18.50;99.90;;;;;;4976453;28;20465;-76
2023/05/08 08:09:04;;;;;;;14.87;13.73;;;18.40;99.90;;;;;;4993562;28;21018;-77
2023/05/08 08:11:30;;;;;;;15.50;14.27;;;18.40;99.90;;;;;;4994214;28;20170;-76
2023/05/08 08:13:56;;;;;;;14.37;12.97;;;18.40;99.90;;;;;;4994080;28;20262;-77
2023/05/08 08:16:21;;;;;;;14.27;13.17;;;18.40;99.90;;;;;;4994761;28;20227;-76
2023/05/08 08:18:46;;;;;;;15.17;13.77;;;18.40;99.90;;;;;;4993442;28;20235;-76
2023/05/08 08:21:12;;;;;;;15.33;14.13;;;18.40;99.90;;;;;;4993699;28;20183;-76
2023/05/08 08:23:37;;;;;;;18.87;17.07;;;18.30;99.90;;;;;;4993843;28;20171;-77
2023/05/08 08:26:03;;;;;;;12.50;11.50;;;18.10;99.90;;;;;;4993778;28;20263;-76
2023/05/08 08:28:29;;;;;;;10.13;9.33;;;17.90;99.90;;;;;;4993361;28;20198;-75
2023/05/08 08:30:54;;;;;;;10.07;9.07;;;17.70;99.90;;;;;;4993546;28;20226;-76
2023/05/08 08:33:20;;;;;;;8.50;7.90;;;17.50;99.90;;;;;;4993483;28;20191;-75
2023/05/08 08:35:45;;;;;;;10.73;9.83;;;17.40;99.90;;;;;;4993370;28;20233;-76
2023/05/08 08:38:11;;;;;;;11.73;10.83;;;17.30;99.90;;;;;;4993290;28;20187;-76
2023/05/08 08:40:40;;;;;;;10.63;9.60;;;17.20;99.90;;;;;;4993257;28;20187;-75
2023/05/08 08:43:06;;;;;;;9.80;9.10;;;17.10;99.90;;;;;;4985020;28;20183;-75
2023/05/08 08:45:32;;;;;;;10.57;9.53;;;16.80;99.90;;;;;;4973510;28;20419;-75
2023/05/08 08:48:01;;;;;;;10.57;9.70;;;16.80;99.90;;;;;;4973492;28;20439;-76
2023/05/08 08:50:32;;;;;;;11.20;10.20;;;16.60;99.90;;;;;;4973345;28;20204;-76
2023/05/08 08:53:09;;;;;;;12.80;10.60;;;16.70;99.90;;;;;;4973693;28;20930;-76
2023/05/08 08:55:39;;;;;;;10.63;9.70;;;16.60;99.90;;;;;;4973767;28;20430;-76
2023/05/08 08:58:10;;;;;;;12.47;11.13;;;16.40;99.90;;;;;;4973572;28;20431;-76
2023/05/08 09:00:37;;;;;;;9.73;8.90;;;16.40;99.90;;;;;;4973551;28;20416;-76
2023/05/08 09:03:06;;;;;;;9.87;9.03;;;16.30;99.90;;;;;;4973482;28;20420;-76
2023/05/08 09:05:32;;;;;;;9.03;8.13;;;16.20;99.90;;;;;;4973646;28;20427;-77
2023/05/08 09:07:58;;;;;;;10.20;9.30;;;16.30;99.90;;;;;;4973340;28;20467;-75
2023/05/08 09:10:24;;;;;;;11.30;10.10;;;16.40;99.90;;;;;;4973171;28;20466;-75
2023/05/08 09:12:50;;;;;;;9.40;8.60;;;16.60;99.90;;;;;;4973457;28;20420;-75
2023/05/08 09:15:15;;;;;;;8.77;8.07;;;16.60;99.90;;;;;;4973239;28;20596;-75
2023/05/08 09:17:41;;;;;;;9.67;8.77;;;16.70;99.90;;;;;;4973445;28;20212;-74
2023/05/08 09:20:08;;;;;;;8.67;7.90;;;16.80;99.90;;;;;;4973041;28;20698;-75
2023/05/08 09:22:37;;;;;;;11.70;10.70;;;16.80;99.90;;;;;;4972865;28;20523;-76
2023/05/08 09:25:03;;;;;;;10.00;9.00;;;16.80;99.90;;;;;;4973289;28;20438;-76
2023/05/08 09:27:31;;;;;;;10.70;9.30;;;16.70;99.90;;;;;;4973052;28;20848;-76
2023/05/08 09:30:00;;;;;;;10.90;9.80;;;16.70;99.90;;;;;;4972767;28;20208;-76
2023/05/08 09:32:27;;;;;;;10.90;10.00;;;16.70;99.90;;;;;;4973241;28;20416;-76
2023/05/08 09:34:52;;;;;;;11.50;10.30;;;16.70;99.90;;;;;;4973205;28;20419;-76
2023/05/08 09:37:18;;;;;;;11.37;10.40;;;16.80;99.90;;;;;;4973109;28;20933;-76
2023/05/08 09:39:46;;;;;;;11.57;10.63;;;16.90;99.90;;;;;;4972930;28;20591;-75
2023/05/08 09:42:12;;;;;;;12.30;11.10;;;16.90;99.90;;;;;;4973992;28;20744;-76
2023/05/08 09:44:52;;;;;;;12.57;11.10;;;17.10;99.90;;;;;;4991061;28;20433;-76
2023/05/08 09:47:23;;;;;;;11.70;10.70;;;17.30;99.90;;;;;;4972946;28;20346;-77
2023/05/08 09:50:09;;;;;;;11.87;10.83;;;17.40;99.90;;;;;;4972829;28;20482;-76
2023/05/08 09:52:36;;;;;;;10.93;10.03;;;17.60;99.90;;;;;;4972749;28;20447;-75
2023/05/08 09:55:03;;;;;;;11.70;10.67;;;17.70;99.90;;;;;;4955821;28;20804;-76
2023/05/08 09:57:31;;;;;;;8.10;7.47;;;17.90;99.90;;;;;;4973604;28;20474;-77
2023/05/08 10:00:02;;;;;;;10.10;9.30;;;18.00;99.90;;;;;;4976853;28;20431;-76
2023/05/08 10:02:28;;;;;;;10.60;9.60;;;18.10;99.90;;;;;;4976766;28;20424;-76
2023/05/08 10:04:54;;;;;;;10.00;9.10;;;18.10;99.90;;;;;;4977136;28;20449;-76
2023/05/08 10:07:34;;;;;;;8.87;7.97;;;18.00;99.90;;;;;;4976557;28;21159;-76
2023/05/08 10:10:05;;;;;;;8.97;8.27;;;18.10;99.90;;;;;;4976369;28;20222;-76
2023/05/08 10:12:32;;;;;;;9.63;7.50;;;18.50;99.90;;;;;;4976761;28;20514;-77
2023/05/08 10:14:58;;;;;;;7.30;6.70;;;18.90;99.90;;;;;;4976616;28;20438;-76
2023/05/08 10:17:55;;;;;;;5.77;5.33;;;19.20;99.90;;;;;;4976537;28;20451;-77
2023/05/08 10:20:24;;;;;;;7.07;6.57;;;19.80;99.90;;;;;;4976435;28;20917;-77
2023/05/08 10:22:50;;;;;;;6.63;6.13;;;20.20;99.90;;;;;;4976862;28;20458;-77
2023/05/08 10:25:19;;;;;;;6.27;5.77;;;20.20;99.90;;;;;;4976642;28;20427;-77
2023/05/08 10:27:45;;;;;;;5.00;4.60;;;20.20;99.90;;;;;;4976532;28;20530;-77
2023/05/08 10:30:13;;;;;;;5.30;4.90;;;19.40;99.90;;;;;;4972801;28;20538;-75
2023/05/08 10:32:43;;;;;;;4.80;4.33;;;19.30;99.90;;;;;;4976507;28;20638;-76
2023/05/08 10:35:10;;;;;;;4.43;4.07;;;19.00;99.90;;;;;;4976485;28;20426;-75
2023/05/08 10:37:37;;;;;;;4.80;4.40;;;18.70;99.90;;;;;;4976399;28;20450;-76
2023/05/08 10:40:05;;;;;;;5.40;4.90;;;18.50;99.90;;;;;;4975977;28;20427;-74
2023/05/08 10:42:34;;;;;;;5.80;5.30;;;18.50;99.90;;;;;;4979381;28;20427;-74
2023/05/08 10:45:00;;;;;;;5.83;5.20;;;18.70;99.90;;;;;;4995293;28;20422;-72
2023/05/08 10:47:44;;;;;;;6.17;4.70;;;18.60;99.90;;;;;;4995459;28;20954;-73
2023/05/08 10:50:28;;;;;;;4.33;4.03;;;18.60;99.90;;;;;;4995246;28;21101;-75
2023/05/08 10:53:00;;;;;;;5.13;4.83;;;18.70;99.90;;;;;;4995476;28;20415;-75
2023/05/08 10:55:30;;;;;;;4.67;4.27;;;18.70;99.90;;;;;;4995584;28;20411;-75
2023/05/08 10:58:08;;;;;;;5.87;5.27;;;18.70;99.90;;;;;;4994229;28;20434;-75
2023/05/08 11:00:51;;;;;;;6.43;6.00;;;18.50;99.90;;;;;;4959762;28;20439;-75
2023/05/08 11:03:18;;;;;;;5.90;5.40;;;18.30;99.90;;;;;;4956488;28;20412;-75
2023/05/08 11:05:48;;;;;;;6.57;5.97;;;18.10;99.90;;;;;;4956305;28;20575;-75
2023/05/08 11:08:26;;;;;;;6.17;5.67;;;18.10;99.90;;;;;;4955580;28;20444;-75
2023/05/08 11:11:05;;;;;;;5.83;5.40;;;18.20;99.90;;;;;;4956325;29;20827;-75
2023/05/08 11:13:34;;;;;;;5.83;5.43;;;18.50;99.90;;;;;;4956354;29;20941;-75
2023/05/08 11:16:00;;;;;;;6.30;5.90;;;19.00;99.90;;;;;;4956069;29;20547;-75
2023/05/08 11:18:26;;;;;;;6.53;6.03;;;19.80;99.90;;;;;;4956334;28;20950;-76
2023/05/08 11:21:03;;;;;;;5.80;5.30;;;20.70;99.90;;;;;;4956262;28;20177;-76
2023/05/08 11:23:30;;;;;;;7.20;6.60;;;21.40;99.90;;;;;;4956277;29;20427;-76
2023/05/08 11:26:02;;;;;;;5.77;5.30;;;21.90;99.90;;;;;;4956206;28;20421;-76
2023/05/08 11:28:37;;;;;;;6.50;6.00;;;21.80;99.90;;;;;;4955376;28;20452;-74
2023/05/08 11:31:05;;;;;;;5.20;4.80;;;22.20;99.90;;;;;;4993776;28;20458;-75
2023/05/08 11:33:32;;;;;;;4.63;4.30;;;22.10;99.90;;;;;;4994253;28;20445;-75
2023/05/08 11:36:15;;;;;;;4.70;4.40;;;21.80;99.90;;;;;;4994724;28;20421;-75
2023/05/08 11:38:42;;;;;;;4.93;4.63;;;21.80;99.90;;;;;;4994306;28;20931;-75
2023/05/08 11:41:23;;;;;;;4.80;4.50;;;22.50;99.90;;;;;;4994495;28;20422;-75
2023/05/08 11:44:12;;;;;;;4.53;4.13;;;22.90;99.90;;;;;;4980656;28;20940;-75
2023/05/08 11:46:52;;;;;;;5.13;4.73;;;23.40;99.90;;;;;;4975113;28;20452;-75
2023/05/08 11:49:20;;;;;;;6.33;5.90;;;23.90;99.90;;;;;;4974397;28;20459;-75
2023/05/08 11:51:49;;;;;;;7.40;6.90;;;23.40;99.90;;;;;;4974931;28;20431;-75
2023/05/08 11:54:18;;;;;;;7.70;7.00;;;23.60;99.90;;;;;;4974906;28;20427;-75
2023/05/08 11:56:47;;;;;;;7.17;6.70;;;23.70;99.90;;;;;;4974912;28;20431;-75
2023/05/08 11:59:14;;;;;;;7.43;6.93;;;23.60;99.90;;;;;;4974547;28;20506;-75
2023/05/08 12:01:39;;;;;;;7.00;6.40;;;23.50;99.90;;;;;;4974607;28;20435;-75
2023/05/08 12:04:10;;;;;;;8.50;7.80;;;23.50;99.90;;;;;;4974474;28;20420;-75
2023/05/08 12:06:37;;;;;;;7.67;7.07;;;23.70;99.90;;;;;;4974586;28;20204;-75
2023/05/08 12:09:12;;;;;;;7.43;6.83;;;24.00;99.90;;;;;;4974369;28;21028;-75
2023/05/08 12:11:40;;;;;;;8.63;7.93;;;24.70;99.90;;;;;;4974604;28;20423;-75
2023/05/08 12:14:05;;;;;;;8.27;7.63;;;24.90;99.90;;;;;;4974557;28;20419;-75
2023/05/08 12:16:35;;;;;;;8.17;7.57;;;25.10;99.90;;;;;;4974269;28;20422;-75
2023/05/08 12:19:00;;;;;;;8.03;7.43;;;25.00;99.90;;;;;;4974020;28;20215;-75
2023/05/08 12:21:26;;;;;;;8.80;8.20;;;24.90;99.90;;;;;;4973644;28;20428;-75
2023/05/08 12:23:54;;;;;;;9.57;8.77;;;25.00;99.90;;;;;;4974365;28;20168;-75
2023/05/08 12:26:21;;;;;;;9.37;8.60;;;25.40;99.90;;;;;;4974168;28;20279;-75
2023/05/08 12:28:54;;;;;;;8.90;8.30;;;25.30;99.90;;;;;;4974006;28;20423;-75
2023/05/08 12:31:19;;;;;;;9.50;8.80;;;25.70;99.90;;;;;;4974358;28;20412;-75
2023/05/08 12:33:46;;;;;;;9.77;8.87;;;26.60;99.90;;;;;;4973627;28;20412;-76
2023/05/08 12:36:12;;;;;;;9.13;8.43;;;26.60;99.90;;;;;;4974092;28;20181;-76
2023/05/08 12:38:38;;;;;;;9.90;9.10;;;28.10;99.90;;;;;;4973727;28;20486;-77
2023/05/08 12:41:05;;;;;;;8.17;7.57;;;29.30;98.10;;;;;;4973989;28;20435;-74